createdAt,value
2023-02-23T00:01:48.556Z,10.48
2023-02-23T00:04:18.775Z,10.43
2023-02-23T00:09:35.494Z,10.50
2023-02-23T00:12:08.711Z,11.48
2023-02-23T00:14:39.610Z,12.00
2023-02-23T00:17:17.907Z,12.75
2023-02-23T00:19:49.171Z,11.82
2023-02-23T00:22:20.288Z,11.15
2023-02-23T00:24:48.198Z,9.40
2023-02-23T00:27:21.168Z,11.10
2023-02-23T00:29:55.986Z,11.18
2023-02-23T00:32:29.489Z,11.70
2023-02-23T00:34:59.631Z,10.73
2023-02-23T00:37:27.129Z,10.98
2023-02-23T00:39:59.526Z,11.50
2023-02-23T00:42:34.613Z,11.00
2023-02-23T00:45:10.883Z,11.48
2023-02-23T00:47:40.547Z,11.73
2023-02-23T00:50:18.700Z,11.38
2023-02-23T00:52:46.661Z,11.27
2023-02-23T00:55:15.634Z,10.90
2023-02-23T00:57:46.034Z,11.30
2023-02-23T01:00:17.550Z,12.13
2023-02-23T01:02:52.924Z,11.43
2023-02-23T01:05:22.920Z,11.63
2023-02-23T01:07:51.439Z,12.02
2023-02-23T01:10:23.210Z,14.43
2023-02-23T01:12:52.595Z,12.13
2023-02-23T01:15:21.560Z,12.38
2023-02-23T01:17:49.603Z,11.38
2023-02-23T01:20:19.587Z,12.52
2023-02-23T01:22:49.765Z,14.82
2023-02-23T01:25:19.310Z,11.23
2023-02-23T01:27:46.636Z,10.98
2023-02-23T01:30:16.925Z,11.43
2023-02-23T01:32:45.019Z,11.27
2023-02-23T01:35:13.664Z,12.52
2023-02-23T01:38:00.582Z,12.25
2023-02-23T01:40:31.161Z,9.95
2023-02-23T01:43:26.258Z,9.38
2023-02-23T01:46:00.929Z,13.85
2023-02-23T01:48:38.949Z,9.85
2023-02-23T01:51:18.561Z,10.43
2023-02-23T01:54:01.841Z,12.40
2023-02-23T01:56:44.091Z,10.60
2023-02-23T01:59:21.256Z,9.98
2023-02-23T02:01:51.518Z,11.93
2023-02-23T02:04:24.629Z,22.02
2023-02-23T02:06:55.502Z,57.03
2023-02-23T02:09:40.624Z,53.08
2023-02-23T02:12:11.937Z,15.77
2023-02-23T02:14:39.630Z,12.75
2023-02-23T02:17:25.764Z,11.00
2023-02-23T02:20:12.832Z,10.98
2023-02-23T02:23:03.444Z,11.48
2023-02-23T02:26:00.258Z,11.18
2023-02-23T02:28:52.116Z,10.00
2023-02-23T02:32:08.252Z,10.70
2023-02-23T02:34:56.168Z,10.60
2023-02-23T02:38:01.780Z,9.07
2023-02-23T02:40:55.366Z,10.20
2023-02-23T02:43:25.614Z,10.25
2023-02-23T02:46:27.077Z,9.27
2023-02-23T02:49:09.885Z,10.57
2023-02-23T02:51:49.087Z,10.98
2023-02-23T02:54:37.132Z,9.63
2023-02-23T02:57:11.812Z,12.02
2023-02-23T03:00:10.781Z,10.57
2023-02-23T03:02:58.522Z,10.90
2023-02-23T03:05:55.262Z,10.88
2023-02-23T03:08:47.246Z,9.63
2023-02-23T03:11:37.232Z,11.68
2023-02-23T03:14:35.013Z,10.10
2023-02-23T03:20:29.661Z,10.98
2023-02-23T03:23:42.721Z,8.57
2023-02-23T03:26:37.077Z,9.55
2023-02-23T03:29:36.354Z,10.63
2023-02-23T03:32:52.830Z,12.80
2023-02-23T03:35:42.202Z,9.30
2023-02-23T03:38:33.466Z,9.57
2023-02-23T03:41:28.989Z,10.07
2023-02-23T03:44:22.028Z,9.07
2023-02-23T03:47:10.190Z,10.07
2023-02-23T03:50:09.678Z,10.18
2023-02-23T03:53:06.118Z,10.77
2023-02-23T03:56:05.488Z,10.45
2023-02-23T03:58:58.708Z,10.43
2023-02-23T04:01:47.027Z,10.05
2023-02-23T04:04:45.811Z,9.60
2023-02-23T04:07:39.083Z,11.93
2023-02-23T04:10:28.714Z,11.32
2023-02-23T04:13:18.264Z,9.32
2023-02-23T04:15:57.087Z,10.80
2023-02-23T04:21:09.338Z,9.45
2023-02-23T04:23:40.877Z,10.35
2023-02-23T04:26:12.120Z,9.38
2023-02-23T04:28:42.130Z,12.02
2023-02-23T04:31:12.153Z,10.98
2023-02-23T04:33:42.669Z,11.18
2023-02-23T04:36:15.739Z,10.63
2023-02-23T04:38:48.346Z,12.15
2023-02-23T04:41:20.761Z,11.65
2023-02-23T04:43:51.264Z,10.95
2023-02-23T04:46:21.596Z,9.60
2023-02-23T04:48:49.363Z,11.80
2023-02-23T04:51:23.143Z,11.70
2023-02-23T04:53:56.792Z,11.68
2023-02-23T04:56:24.989Z,11.27
2023-02-23T04:58:55.302Z,11.07
2023-02-23T05:01:25.883Z,10.52
2023-02-23T05:03:54.934Z,12.07
2023-02-23T05:06:26.968Z,11.82
2023-02-23T05:08:54.453Z,10.90
2023-02-23T05:11:21.710Z,12.02
2023-02-23T05:13:56.951Z,10.80
2023-02-23T05:16:24.494Z,13.00
2023-02-23T05:18:52.828Z,16.35
2023-02-23T05:21:22.772Z,11.95
2023-02-23T05:23:52.125Z,11.88
2023-02-23T05:26:22.970Z,11.55
2023-02-23T05:28:50.819Z,11.45
2023-02-23T05:31:21.374Z,11.00
2023-02-23T05:33:52.211Z,11.52
2023-02-23T05:36:25.688Z,12.07
2023-02-23T05:39:06.188Z,12.25
2023-02-23T05:41:34.060Z,10.55
2023-02-23T05:44:07.310Z,11.18
2023-02-23T05:46:35.442Z,11.02
2023-02-23T05:49:08.122Z,11.70
2023-02-23T05:51:38.511Z,11.07
2023-02-23T05:54:10.359Z,9.90
2023-02-23T05:56:41.586Z,11.65
2023-02-23T05:59:11.091Z,14.60
2023-02-23T06:01:45.243Z,11.93
2023-02-23T06:04:16.257Z,12.18
2023-02-23T06:06:57.290Z,12.00
2023-02-23T06:09:26.457Z,12.00
2023-02-23T06:11:53.958Z,12.13
2023-02-23T06:14:29.580Z,11.40
2023-02-23T06:17:00.590Z,11.52
2023-02-23T06:19:27.963Z,10.85
2023-02-23T06:21:55.122Z,10.88
2023-02-23T06:24:24.139Z,10.55
2023-02-23T06:26:51.904Z,12.48
2023-02-23T06:29:22.956Z,11.63
2023-02-23T06:31:54.351Z,10.57
2023-02-23T06:34:25.581Z,11.20
2023-02-23T06:36:53.014Z,10.70
2023-02-23T06:39:33.657Z,13.07
2023-02-23T06:42:04.577Z,10.93
2023-02-23T06:47:38.487Z,11.70
2023-02-23T06:50:12.564Z,11.82
2023-02-23T06:52:44.298Z,10.32
2023-02-23T06:55:17.691Z,12.10
2023-02-23T06:57:56.210Z,14.30
2023-02-23T07:00:50.608Z,11.18
2023-02-23T07:06:31.839Z,10.13
2023-02-23T07:12:40.573Z,12.75
2023-02-23T07:17:44.451Z,10.27
2023-02-23T07:23:05.372Z,11.88
2023-02-23T07:25:33.193Z,12.30
2023-02-23T07:28:00.849Z,11.13
2023-02-23T07:30:30.425Z,13.60
2023-02-23T07:32:58.504Z,13.30
2023-02-23T07:35:37.274Z,13.30
2023-02-23T07:38:07.235Z,17.67
2023-02-23T07:40:37.248Z,19.38
2023-02-23T07:43:04.791Z,28.25
2023-02-23T07:45:35.930Z,42.78
2023-02-23T07:48:26.628Z,16.65
2023-02-23T07:51:00.269Z,21.70
2023-02-23T07:53:36.432Z,17.73
2023-02-23T07:56:12.491Z,14.57
2023-02-23T07:58:47.938Z,12.40
2023-02-23T08:03:52.575Z,10.15
2023-02-23T08:09:14.391Z,10.48
2023-02-23T08:11:41.876Z,11.13
2023-02-23T08:14:10.703Z,11.60
2023-02-23T08:17:02.604Z,11.43
2023-02-23T08:19:49.407Z,11.75
2023-02-23T08:23:00.326Z,10.57
2023-02-23T08:25:49.255Z,10.90
2023-02-23T08:29:24.583Z,11.38
2023-02-23T08:34:38.184Z,9.60
2023-02-23T08:40:08.920Z,11.75
2023-02-23T08:42:46.618Z,11.63
2023-02-23T08:45:13.977Z,11.68
2023-02-23T08:47:53.711Z,11.45
2023-02-23T08:50:23.026Z,13.38
2023-02-23T08:52:59.587Z,11.98
2023-02-23T08:55:28.083Z,11.65
2023-02-23T08:58:16.346Z,12.63
2023-02-23T09:01:26.983Z,13.68
2023-02-23T09:04:10.165Z,12.38
2023-02-23T09:06:38.197Z,10.57
2023-02-23T09:09:31.103Z,11.35
2023-02-23T09:12:01.855Z,11.75
2023-02-23T09:14:36.467Z,12.32
2023-02-23T09:17:09.570Z,10.82
2023-02-23T09:19:41.215Z,12.40
2023-02-23T09:22:16.674Z,11.20
2023-02-23T09:24:56.587Z,11.10
2023-02-23T09:27:24.950Z,13.60
2023-02-23T09:29:52.967Z,12.50
2023-02-23T09:32:20.300Z,12.10
2023-02-23T09:34:48.817Z,10.48
2023-02-23T09:37:17.292Z,10.07
2023-02-23T09:39:50.292Z,12.00
2023-02-23T09:42:42.499Z,10.57
2023-02-23T09:45:52.084Z,10.85
2023-02-23T09:49:02.581Z,10.68
2023-02-23T09:51:41.393Z,8.95
2023-02-23T09:54:23.083Z,10.13
2023-02-23T09:56:58.514Z,10.75
2023-02-23T09:59:34.454Z,9.35
2023-02-23T10:02:31.315Z,11.00
2023-02-23T10:05:08.161Z,9.80
2023-02-23T10:07:46.894Z,11.45
2023-02-23T10:10:49.481Z,8.93
2023-02-23T10:13:40.197Z,9.02
2023-02-23T10:16:36.544Z,8.55
2023-02-23T10:19:14.772Z,9.32
2023-02-23T10:21:47.199Z,9.60
2023-02-23T10:24:25.536Z,10.23
2023-02-23T10:34:11.682Z,11.40
2023-02-23T10:36:52.919Z,11.30
2023-02-23T10:39:25.506Z,11.88
2023-02-23T10:42:04.636Z,10.75
2023-02-23T10:44:34.669Z,8.25
2023-02-23T10:47:19.030Z,9.02
2023-02-23T10:53:43.216Z,8.27
2023-02-23T10:56:40.964Z,10.05
2023-02-23T10:59:22.211Z,9.55
2023-02-23T11:02:06.361Z,7.72
2023-02-23T11:04:35.755Z,11.07
2023-02-23T11:07:16.582Z,9.80
2023-02-23T11:09:49.670Z,9.88
2023-02-23T11:12:45.502Z,9.82
2023-02-23T11:15:49.796Z,10.02
2023-02-23T11:18:27.486Z,10.02
2023-02-23T11:20:55.941Z,8.35
2023-02-23T11:23:36.947Z,10.32
2023-02-23T11:26:24.680Z,9.13
2023-02-23T11:29:01.427Z,10.20
2023-02-23T11:31:36.395Z,9.02
2023-02-23T11:34:07.612Z,8.77
2023-02-23T11:39:44.100Z,8.25
2023-02-23T11:42:47.556Z,7.05
2023-02-23T11:46:04.859Z,7.97
2023-02-23T11:48:39.119Z,8.43
2023-02-23T11:51:09.497Z,8.80
2023-02-23T11:53:53.080Z,8.55
2023-02-23T11:56:39.667Z,8.15
2023-02-23T11:59:30.772Z,7.80
2023-02-23T12:02:33.380Z,8.48
2023-02-23T12:05:28.611Z,8.95
2023-02-23T12:08:08.253Z,9.43
2023-02-23T12:10:44.414Z,9.40
2023-02-23T12:13:31.993Z,8.60
2023-02-23T12:16:03.820Z,8.70
2023-02-23T12:18:58.050Z,8.25
2023-02-23T12:21:46.195Z,9.10
2023-02-23T12:24:56.261Z,11.18
2023-02-23T12:27:52.175Z,9.82
2023-02-23T12:30:54.360Z,10.23
2023-02-23T12:33:38.491Z,10.02
2023-02-23T12:36:39.423Z,8.30
2023-02-23T12:39:30.779Z,9.25
2023-02-23T12:42:30.297Z,10.05
2023-02-23T12:45:12.170Z,9.63
2023-02-23T12:48:01.088Z,9.63
2023-02-23T12:50:40.297Z,10.52
2023-02-23T12:53:17.995Z,9.80
2023-02-23T12:56:13.385Z,9.90
2023-02-23T12:59:02.342Z,9.70
2023-02-23T13:02:07.164Z,8.80
2023-02-23T13:04:57.318Z,10.55
2023-02-23T13:07:47.082Z,10.60
2023-02-23T13:10:57.473Z,10.00
2023-02-23T13:14:08.910Z,10.52
2023-02-23T13:16:52.484Z,9.25
2023-02-23T13:19:53.669Z,10.10
2023-02-23T13:22:28.490Z,10.43
2023-02-23T13:25:00.095Z,9.88
2023-02-23T13:27:43.020Z,8.43
2023-02-23T13:30:32.127Z,9.88
2023-02-23T13:36:07.125Z,9.35
2023-02-23T13:38:37.507Z,9.48
2023-02-23T13:41:10.548Z,10.50
2023-02-23T13:44:10.585Z,9.52
2023-02-23T13:46:48.845Z,9.18
2023-02-23T13:49:46.560Z,8.85
2023-02-23T13:52:22.593Z,10.52
2023-02-23T13:55:37.218Z,9.88
2023-02-23T13:58:16.666Z,9.43
2023-02-23T14:01:33.509Z,8.23
2023-02-23T14:04:32.786Z,10.25
2023-02-23T14:07:17.574Z,10.57
2023-02-23T14:12:46.644Z,8.25
2023-02-23T14:15:31.096Z,8.73
2023-02-23T14:18:21.985Z,9.82
2023-02-23T14:21:28.934Z,10.43
2023-02-23T14:24:35.959Z,11.02
2023-02-23T14:27:14.138Z,11.02
2023-02-23T14:29:44.741Z,10.73
2023-02-23T14:32:13.311Z,9.32
2023-02-23T14:34:56.285Z,9.85
2023-02-23T14:37:40.506Z,11.02
2023-02-23T14:40:16.156Z,12.13
2023-02-23T14:42:52.382Z,10.68
2023-02-23T14:45:28.614Z,10.18
2023-02-23T14:48:06.218Z,10.52
2023-02-23T14:50:38.087Z,8.25
2023-02-23T14:53:20.187Z,8.27
2023-02-23T14:55:48.757Z,10.75
2023-02-23T14:58:41.042Z,11.05
2023-02-23T15:01:20.448Z,9.90
2023-02-23T15:04:34.765Z,8.05
2023-02-23T15:07:19.550Z,10.15
2023-02-23T15:12:23.617Z,11.25
2023-02-23T15:15:06.591Z,9.05
2023-02-23T15:18:03.395Z,9.05
2023-02-23T15:23:16.237Z,7.35
2023-02-23T15:25:49.610Z,8.57
2023-02-23T15:28:29.360Z,8.10
2023-02-23T15:31:34.055Z,7.82
2023-02-23T15:37:15.675Z,7.95
2023-02-23T15:40:15.559Z,8.68
2023-02-23T15:43:08.032Z,9.68
2023-02-23T15:46:00.498Z,10.35
2023-02-23T15:48:55.386Z,14.85
2023-02-23T15:52:31.577Z,12.38
2023-02-23T15:55:26.386Z,13.43
2023-02-23T15:58:55.971Z,10.45
2023-02-23T16:02:00.406Z,9.55
2023-02-23T16:04:36.100Z,8.88
2023-02-23T16:10:23.879Z,9.23
2023-02-23T16:13:04.368Z,9.52
2023-02-23T16:15:35.837Z,7.47
2023-02-23T16:18:23.346Z,8.23
2023-02-23T16:21:03.919Z,9.40
2023-02-23T16:23:49.236Z,8.50
2023-02-23T16:26:58.592Z,8.45
2023-02-23T16:29:43.914Z,6.95
2023-02-23T16:32:22.067Z,7.88
2023-02-23T16:34:57.384Z,23.10
2023-02-23T16:37:30.876Z,10.13
2023-02-23T16:40:08.940Z,9.27
2023-02-23T16:42:43.515Z,9.48
2023-02-23T16:45:19.718Z,8.48
2023-02-23T16:48:08.194Z,8.57
2023-02-23T16:50:40.969Z,7.60
2023-02-23T16:53:10.455Z,8.05
2023-02-23T16:55:57.780Z,8.35
2023-02-23T16:58:26.459Z,8.93
2023-02-23T17:00:58.826Z,9.30
2023-02-23T17:03:47.391Z,10.43
2023-02-23T17:06:35.710Z,8.98
2023-02-23T17:09:07.979Z,9.80
2023-02-23T17:14:05.904Z,8.93
2023-02-23T17:16:42.658Z,8.48
2023-02-23T17:19:16.229Z,9.73
2023-02-23T17:21:49.280Z,9.95
2023-02-23T17:24:17.450Z,9.57
2023-02-23T17:26:50.659Z,9.68
2023-02-23T17:29:29.654Z,8.90
2023-02-23T17:32:03.603Z,9.57
2023-02-23T17:37:17.006Z,8.05
2023-02-23T17:39:58.488Z,8.88
2023-02-23T17:45:09.046Z,8.63
2023-02-23T17:47:43.648Z,7.70
2023-02-23T17:50:23.684Z,9.20
2023-02-23T17:52:59.533Z,8.57
2023-02-23T17:55:32.002Z,7.35
2023-02-23T17:58:03.969Z,9.18
2023-02-23T18:00:39.067Z,9.82
2023-02-23T18:03:06.424Z,9.25
2023-02-23T18:05:45.861Z,7.38
2023-02-23T18:08:22.196Z,8.25
2023-02-23T18:10:57.349Z,9.38
2023-02-23T18:13:36.525Z,7.60
2023-02-23T18:16:12.591Z,9.60
2023-02-23T18:18:52.927Z,7.50
2023-02-23T18:21:27.003Z,8.30
2023-02-23T18:23:57.156Z,8.05
2023-02-23T18:26:32.450Z,8.88
2023-02-23T18:29:05.066Z,8.57
2023-02-23T18:31:35.602Z,7.65
2023-02-23T18:34:06.117Z,8.23
2023-02-23T18:36:55.746Z,9.27
2023-02-23T18:39:23.089Z,7.28
2023-02-23T18:42:04.634Z,8.00
2023-02-23T18:44:37.531Z,7.28
2023-02-23T18:47:15.666Z,8.07
2023-02-23T18:49:43.632Z,7.10
2023-02-23T18:52:14.044Z,8.32
2023-02-23T18:54:43.933Z,8.43
2023-02-23T18:57:11.303Z,10.10
2023-02-23T18:59:39.095Z,6.88
2023-02-23T19:02:13.312Z,8.52
2023-02-23T19:04:40.683Z,8.00
2023-02-23T19:09:49.181Z,7.60
2023-02-23T19:12:16.909Z,8.63
2023-02-23T19:14:49.559Z,7.78
2023-02-23T19:17:19.967Z,8.18
2023-02-23T19:19:56.210Z,7.93
2023-02-23T19:22:28.025Z,8.02
2023-02-23T19:24:58.387Z,6.88
2023-02-23T19:27:27.270Z,7.57
2023-02-23T19:30:01.003Z,7.82
2023-02-23T19:32:39.417Z,7.05
2023-02-23T19:35:23.828Z,8.88
2023-02-23T19:37:53.131Z,7.53
2023-02-23T19:40:26.311Z,7.20
2023-02-23T19:42:53.585Z,8.40
2023-02-23T19:45:21.954Z,8.05
2023-02-23T19:47:56.784Z,6.97
2023-02-23T19:50:24.483Z,7.63
2023-02-23T19:52:54.664Z,6.32
2023-02-23T19:55:24.736Z,7.65
2023-02-23T19:57:52.292Z,7.75
2023-02-23T20:00:33.234Z,9.52
2023-02-23T20:03:06.696Z,8.60
2023-02-23T20:05:46.432Z,7.93
2023-02-23T20:08:19.850Z,8.00
2023-02-23T20:10:52.467Z,7.13
2023-02-23T20:13:26.078Z,7.15
2023-02-23T20:16:14.805Z,6.75
2023-02-23T20:18:46.752Z,7.05
2023-02-23T20:21:24.207Z,6.38
2023-02-23T20:23:58.415Z,8.10
2023-02-23T20:26:31.350Z,9.05
2023-02-23T20:29:17.922Z,8.75
2023-02-23T20:31:53.590Z,8.07
2023-02-23T20:34:24.571Z,8.15
2023-02-23T20:36:52.885Z,8.88
2023-02-23T20:39:20.710Z,7.70
2023-02-23T20:41:53.809Z,8.05
2023-02-23T20:44:23.188Z,7.88
2023-02-23T20:46:53.382Z,6.93
2023-02-23T20:49:22.819Z,9.43
2023-02-23T20:51:50.918Z,8.15
2023-02-23T20:54:22.578Z,7.85
2023-02-23T20:57:07.376Z,8.68
2023-02-23T20:59:43.712Z,8.23
2023-02-23T21:02:14.300Z,7.88
2023-02-23T21:04:55.454Z,8.07
2023-02-23T21:07:28.397Z,8.02
2023-02-23T21:10:01.226Z,7.85
2023-02-23T21:12:34.527Z,8.85
2023-02-23T21:15:04.858Z,8.80
2023-02-23T21:17:35.657Z,8.15
2023-02-23T21:20:07.261Z,7.35
2023-02-23T21:22:40.206Z,8.35
2023-02-23T21:25:15.254Z,8.13
2023-02-23T21:27:45.101Z,8.98
2023-02-23T21:30:20.122Z,8.18
2023-02-23T21:32:52.528Z,7.97
2023-02-23T21:35:27.596Z,8.15
2023-02-23T21:37:59.544Z,7.03
2023-02-23T21:40:29.748Z,9.18
2023-02-23T21:42:58.451Z,8.85
2023-02-23T21:45:27.473Z,8.40
2023-02-23T21:47:55.368Z,8.27
2023-02-23T21:50:22.938Z,9.18
2023-02-23T21:52:58.088Z,7.82
2023-02-23T21:55:25.167Z,10.60
2023-02-23T21:57:53.607Z,9.70
2023-02-23T22:00:22.225Z,9.25
2023-02-23T22:02:53.287Z,7.80
2023-02-23T22:05:26.501Z,7.05
2023-02-23T22:07:55.242Z,9.25
2023-02-23T22:10:26.370Z,8.38
2023-02-23T22:13:00.574Z,7.93
2023-02-23T22:15:30.910Z,7.20
2023-02-23T22:17:58.483Z,8.68
2023-02-23T22:20:27.823Z,8.70
2023-02-23T22:22:55.018Z,9.82
2023-02-23T22:25:31.312Z,8.65
2023-02-23T22:27:59.365Z,8.73
2023-02-23T22:30:32.218Z,10.45
2023-02-23T22:33:03.137Z,8.82
2023-02-23T22:35:30.732Z,9.00
2023-02-23T22:38:01.263Z,7.63
2023-02-23T22:40:29.229Z,9.18
2023-02-23T22:42:59.165Z,9.38
2023-02-23T22:45:26.646Z,9.23
2023-02-23T22:47:58.276Z,7.50
2023-02-23T22:50:28.542Z,8.60
2023-02-23T22:53:06.174Z,9.52
2023-02-23T22:55:39.156Z,10.30
2023-02-23T22:58:09.362Z,9.73
2023-02-23T23:00:36.756Z,10.50
2023-02-23T23:03:08.342Z,9.35
2023-02-23T23:05:37.591Z,10.02
2023-02-23T23:08:08.619Z,8.85
2023-02-23T23:10:41.268Z,9.23
2023-02-23T23:13:11.864Z,8.35
2023-02-23T23:15:48.562Z,9.05
2023-02-23T23:18:21.658Z,10.63
2023-02-23T23:20:49.529Z,9.50
2023-02-23T23:23:19.330Z,8.15
2023-02-23T23:25:50.317Z,10.50
2023-02-23T23:28:19.492Z,8.00
2023-02-23T23:30:47.725Z,10.73
2023-02-23T23:33:15.048Z,10.45
2023-02-23T23:35:43.061Z,10.48
2023-02-23T23:38:16.474Z,9.65
2023-02-23T23:40:47.552Z,10.95
2023-02-23T23:43:28.695Z,9.68
2023-02-23T23:45:57.772Z,8.57
2023-02-23T23:48:25.440Z,9.13
2023-02-23T23:50:55.699Z,9.45
2023-02-23T23:53:24.135Z,9.40
2023-02-23T23:55:51.925Z,9.23
2023-02-23T23:58:22.989Z,11.82
